Ytterholmen Fyr, Norway

6:30 AM CEST on August 22, 2014 (GMT +0200)
Stokka | Change Station
CLOSE
Current Station
Airport
Location: Sandnessjoen,
Elevation: 56 ft
Nearby Weather Stations

Elev 56 ft 65.96 °N, 12.47 °E | Updated 10 minutes ago

Mostly Cloudy
Mostly Cloudy
52 °F
Feels Like 52 °F
N
6
Wind Variable Wind from NE

Today
High -- | Low -- °F
--% Chance of Precip.
Yesterday
High -- | Low -- °F
Precip. -- in
5:14 AM 9:15 PM
Waning Crescent, 10% visible
Pressure 29.65 in
Visibility 6.2 miles
Clouds Few 500 ft
Scattered Clouds 1500 ft
Mostly Cloudy 5500 ft
Dew Point 52 °F
Humidity 100%
Rainfall 0.00 in
Snow Depth Not available.
UV 0 out of 12
Pollen Not available.
Air Quality Not available.
Flu Activity Not available.
METAR ENST 220420Z 04005KT 9999 FEW005 SCT015 BKN055 11/11 Q1004 RMK WIND 300FT 04009KT

More Conditions Fewer Conditions

Pressure 29.65 in
Visibility 6.2 miles
Clouds Few 500 ft
Scattered Clouds 1500 ft
Mostly Cloudy 5500 ft
Dew Point 52 °F
Humidity 100%
Rainfall 0.00 in
Snow Depth Not available.
UV 0 out of 12
Pollen Not available.
Air Quality Not available.
Flu Activity Not available.
METAR ENST 220420Z 04005KT 9999 FEW005 SCT015 BKN055 11/11 Q1004 RMK WIND 300FT 04009KT

More Conditions Fewer Conditions

10-Day Weather Forecast

Almanac

Astronomy

Aug. 22, 2014 Rise Set
Actual Time 5:14 AM CEST 9:15 PM CEST
Civil Twilight 4:07 AM CEST 10:21 PM CEST
Nautical Twilight 1:39 AM CEST 12:31 AM CEST
Astronomical Twilight Sun does not rise Sun does not rise
Moon 1:42 AM CEST 7:40 PM CEST
Length of Visible Light 18h 13m
Length of Day
16h 01m
Tomorrow will be 7m 19s shorter.
Waning Crescent, 10% of the Moon is Illuminated
Today
Waning Crescent
Aug 25
New
Sep 2
First Quarter
Sep 8
Full
Sep 15
Last Quarter

Yesterday's Extremes

Country Highs Country Lows

Community

WunderPhotos

Upload Photos

1,746,128 photos uploaded!

Nearby

Snow Depth

Not available.

Earthquake Activity

City Distance Mag. Time & Date
No recent earthquake activity has been reported nearby.
Minimum magnitude displayed is 2.5.

Coastal Water Temperatures

Place Temperature
No Stations Reporting

Nearby Weather Stations